createdAt,value
2018-01-29T00:01:51.070Z,11.20
2018-01-29T00:04:29.522Z,11.20
2018-01-29T00:06:57.895Z,11.20
2018-01-29T00:09:26.219Z,11.20
2018-01-29T00:11:53.783Z,11.20
2018-01-29T00:14:21.351Z,11.20
2018-01-29T00:16:49.711Z,11.20
2018-01-29T00:19:17.255Z,11.10
2018-01-29T00:21:45.595Z,11.20
2018-01-29T00:24:14.379Z,11.20
2018-01-29T00:26:41.938Z,11.20
2018-01-29T00:29:09.503Z,11.20
2018-01-29T00:31:37.112Z,11.20
2018-01-29T00:34:19.893Z,11.10
2018-01-29T00:36:47.469Z,11.10
2018-01-29T00:39:15.022Z,11.10
2018-01-29T00:41:42.580Z,11.10
2018-01-29T00:44:29.501Z,11.10
2018-01-29T00:46:57.056Z,11.10
2018-01-29T00:49:24.642Z,11.10
2018-01-29T00:51:53.000Z,11.10
2018-01-29T00:54:20.550Z,11.00
2018-01-29T00:56:48.131Z,11.10
2018-01-29T00:59:15.721Z,11.10
2018-01-29T01:01:44.051Z,11.00
2018-01-29T01:04:14.847Z,11.00
2018-01-29T01:06:42.395Z,11.00
2018-01-29T01:09:11.471Z,11.00
2018-01-29T01:11:39.016Z,11.00
2018-01-29T01:14:13.853Z,11.00
2018-01-29T01:16:41.410Z,11.00
2018-01-29T01:19:08.954Z,11.00
2018-01-29T01:21:37.144Z,11.00
2018-01-29T01:24:11.622Z,11.00
2018-01-29T01:26:39.214Z,11.00
2018-01-29T01:29:06.808Z,11.00
2018-01-29T01:31:34.352Z,11.00
2018-01-29T01:34:02.881Z,11.00
2018-01-29T01:36:31.203Z,11.00
2018-01-29T01:38:58.762Z,11.00
2018-01-29T01:41:26.341Z,11.00
2018-01-29T01:43:53.902Z,11.00
2018-01-29T01:46:21.477Z,11.00
2018-01-29T01:48:49.085Z,11.00
2018-01-29T01:51:17.571Z,11.00
2018-01-29T01:53:45.187Z,11.00
2018-01-29T01:56:12.755Z,11.10
2018-01-29T01:58:40.293Z,11.00
2018-01-29T02:01:07.916Z,11.10
2018-01-29T02:03:35.466Z,11.10
2018-01-29T02:06:03.020Z,11.10
2018-01-29T02:08:31.444Z,11.10
2018-01-29T02:10:58.998Z,11.10
2018-01-29T02:13:26.570Z,11.10
2018-01-29T02:15:54.188Z,11.10
2018-01-29T02:18:22.501Z,11.10
2018-01-29T02:20:50.041Z,11.10
2018-01-29T02:23:17.635Z,11.10
2018-01-29T02:25:45.746Z,11.10
2018-01-29T02:28:13.305Z,11.10
2018-01-29T02:30:40.895Z,11.10
2018-01-29T02:33:09.262Z,11.10
2018-01-29T02:35:37.581Z,11.10
2018-01-29T02:38:05.162Z,11.10
2018-01-29T02:40:33.272Z,11.10
2018-01-29T02:43:00.911Z,11.10
2018-01-29T02:45:28.432Z,11.10
2018-01-29T02:47:56.012Z,11.10
2018-01-29T02:50:23.708Z,11.10
2018-01-29T02:52:51.298Z,11.10
2018-01-29T02:55:19.626Z,11.10
2018-01-29T02:57:47.979Z,11.10
2018-01-29T03:00:16.967Z,11.10
2018-01-29T03:02:44.530Z,11.10
2018-01-29T03:05:12.147Z,11.10
2018-01-29T03:07:39.727Z,11.10
2018-01-29T03:10:07.307Z,11.10
2018-01-29T03:12:45.433Z,11.10
2018-01-29T03:15:12.993Z,11.10
2018-01-29T03:17:40.567Z,11.10
2018-01-29T03:20:08.143Z,11.10
2018-01-29T03:22:41.931Z,11.10
2018-01-29T03:25:09.504Z,11.10
2018-01-29T03:27:37.052Z,11.10
2018-01-29T03:30:04.670Z,11.10
2018-01-29T03:32:32.652Z,11.00
2018-01-29T03:35:00.976Z,11.00
2018-01-29T03:37:28.514Z,11.00
2018-01-29T03:39:56.086Z,11.00
2018-01-29T03:42:23.690Z,11.00
2018-01-29T03:44:51.239Z,11.00
2018-01-29T03:47:18.824Z,11.00
2018-01-29T03:49:47.067Z,11.00
2018-01-29T03:52:14.611Z,11.00
2018-01-29T03:54:55.286Z,11.00
2018-01-29T03:57:22.835Z,11.00
2018-01-29T03:59:51.152Z,10.90
2018-01-29T04:02:19.223Z,10.90
2018-01-29T04:04:47.396Z,11.00
2018-01-29T04:07:14.923Z,11.00
2018-01-29T04:09:42.474Z,11.00
2018-01-29T04:12:10.804Z,11.00
2018-01-29T04:14:42.276Z,11.00
2018-01-29T04:17:09.800Z,11.00
2018-01-29T04:19:37.372Z,11.00
2018-01-29T04:22:04.998Z,11.00
2018-01-29T04:24:40.726Z,11.10
2018-01-29T04:27:08.325Z,11.00
2018-01-29T04:29:35.888Z,11.00
2018-01-29T04:32:03.438Z,11.00
2018-01-29T04:34:31.961Z,11.10
2018-01-29T04:36:59.521Z,11.00
2018-01-29T04:39:27.128Z,11.10
2018-01-29T04:41:54.663Z,11.00
2018-01-29T04:44:33.167Z,11.00
2018-01-29T04:47:00.724Z,11.10
2018-01-29T04:49:28.278Z,11.00
2018-01-29T04:51:55.857Z,11.00
2018-01-29T04:54:23.419Z,11.00
2018-01-29T04:56:50.970Z,11.00
2018-01-29T04:59:18.534Z,11.00
2018-01-29T05:01:46.184Z,11.00
2018-01-29T05:04:14.757Z,11.00
2018-01-29T05:06:42.306Z,11.00
2018-01-29T05:09:09.889Z,11.00
2018-01-29T05:11:37.435Z,11.00
2018-01-29T05:14:05.001Z,11.00
2018-01-29T05:16:32.603Z,11.00
2018-01-29T05:19:00.163Z,11.00
2018-01-29T05:21:29.249Z,11.00
2018-01-29T05:23:56.817Z,11.00
2018-01-29T05:26:24.439Z,10.90
2018-01-29T05:28:52.024Z,10.90
2018-01-29T05:31:19.595Z,10.90
2018-01-29T05:34:01.440Z,10.90
2018-01-29T05:36:34.874Z,10.90
2018-01-29T05:39:02.481Z,10.90
2018-01-29T05:41:30.030Z,10.80
2018-01-29T05:43:57.585Z,10.80
2018-01-29T05:46:25.168Z,10.80
2018-01-29T05:48:52.744Z,10.80
2018-01-29T05:51:20.323Z,10.80
2018-01-29T05:53:48.680Z,10.80
2018-01-29T05:56:16.280Z,10.80
2018-01-29T05:58:43.858Z,10.80
2018-01-29T06:01:11.473Z,10.80
2018-01-29T06:03:39.011Z,10.70
2018-01-29T06:06:06.576Z,10.70
2018-01-29T06:08:34.159Z,10.70
2018-01-29T06:11:01.709Z,10.70
2018-01-29T06:13:29.761Z,10.70
2018-01-29T06:15:57.353Z,10.70
2018-01-29T06:18:24.936Z,10.60
2018-01-29T06:20:52.500Z,10.70
2018-01-29T06:23:38.806Z,10.70
2018-01-29T06:26:07.108Z,10.60
2018-01-29T06:28:34.654Z,10.60
2018-01-29T06:31:02.385Z,10.60
2018-01-29T06:33:35.806Z,10.60
2018-01-29T06:36:03.402Z,10.60
2018-01-29T06:38:30.969Z,10.60
2018-01-29T06:40:58.522Z,10.50
2018-01-29T06:43:26.253Z,10.50
2018-01-29T06:45:56.300Z,10.50
2018-01-29T06:48:23.851Z,10.50
2018-01-29T06:50:51.455Z,10.50
2018-01-29T06:53:19.011Z,10.50
2018-01-29T06:55:46.553Z,10.50
2018-01-29T06:58:15.095Z,10.50
2018-01-29T07:00:43.437Z,10.50
2018-01-29T07:03:15.943Z,10.50
2018-01-29T07:05:43.495Z,10.50
2018-01-29T07:08:11.059Z,10.50
2018-01-29T07:10:38.638Z,10.50
2018-01-29T07:13:08.682Z,10.50
2018-01-29T07:15:36.284Z,10.50
2018-01-29T07:18:04.846Z,10.50
2018-01-29T07:20:33.148Z,10.50
2018-01-29T07:23:00.706Z,10.50
2018-01-29T07:25:28.294Z,10.50
2018-01-29T07:27:56.606Z,10.50
2018-01-29T07:30:24.207Z,10.50
2018-01-29T07:32:51.767Z,10.50
2018-01-29T07:35:19.350Z,10.50
2018-01-29T07:37:46.986Z,10.60
2018-01-29T07:40:14.557Z,10.60
2018-01-29T07:42:47.691Z,10.60
2018-01-29T07:45:15.243Z,10.60
2018-01-29T07:47:42.831Z,10.50
2018-01-29T07:50:13.017Z,10.60
2018-01-29T07:52:44.689Z,10.50
2018-01-29T07:55:12.270Z,10.60
2018-01-29T07:57:40.616Z,10.60
2018-01-29T08:00:08.199Z,10.60
2018-01-29T08:02:40.612Z,10.60
2018-01-29T08:05:08.636Z,10.60
2018-01-29T08:07:36.560Z,10.60
2018-01-29T08:10:04.169Z,10.60
2018-01-29T08:12:35.266Z,10.60
2018-01-29T08:15:02.837Z,10.60
2018-01-29T08:17:30.375Z,10.60
2018-01-29T08:19:57.987Z,10.50
2018-01-29T08:22:25.583Z,10.50
2018-01-29T08:24:53.917Z,10.50
2018-01-29T08:27:21.449Z,10.50
2018-01-29T08:29:49.133Z,10.50
2018-01-29T08:32:17.506Z,10.60
2018-01-29T08:34:45.493Z,10.50
2018-01-29T08:37:13.088Z,10.60
2018-01-29T08:39:41.565Z,10.60
2018-01-29T08:42:10.062Z,10.60
2018-01-29T08:44:39.438Z,10.60
2018-01-29T08:47:07.006Z,10.60
2018-01-29T08:49:34.576Z,10.60
2018-01-29T08:52:02.241Z,10.60
2018-01-29T08:54:29.919Z,10.60
2018-01-29T08:56:58.266Z,10.70
2018-01-29T08:59:25.833Z,10.70
2018-01-29T09:01:53.434Z,10.70
2018-01-29T09:04:22.779Z,10.60
2018-01-29T09:06:50.353Z,10.60
2018-01-29T09:09:17.957Z,10.70
2018-01-29T09:11:45.528Z,10.70
2018-01-29T09:14:14.867Z,10.80
2018-01-29T09:16:42.477Z,10.70
2018-01-29T09:19:10.020Z,10.80
2018-01-29T09:21:37.568Z,10.70
2018-01-29T09:24:07.278Z,10.80
2018-01-29T09:26:35.674Z,10.80
2018-01-29T09:29:03.225Z,10.80
2018-01-29T09:31:30.818Z,10.80
2018-01-29T09:33:59.110Z,10.80
2018-01-29T09:36:27.445Z,10.80
2018-01-29T09:38:55.086Z,10.80
2018-01-29T09:41:22.705Z,10.80
2018-01-29T09:43:52.305Z,10.80
2018-01-29T09:46:19.863Z,10.80
2018-01-29T09:48:47.527Z,10.80
2018-01-29T09:51:15.089Z,10.80
2018-01-29T09:53:44.598Z,10.80
2018-01-29T09:56:14.694Z,10.80
2018-01-29T09:58:42.253Z,10.80
2018-01-29T10:01:09.818Z,10.80
2018-01-29T10:03:41.688Z,10.90
2018-01-29T10:06:09.294Z,10.80
2018-01-29T10:08:36.870Z,10.90
2018-01-29T10:11:04.461Z,10.90
2018-01-29T10:13:32.017Z,10.90
2018-01-29T10:15:59.571Z,10.80
2018-01-29T10:18:27.988Z,10.80
2018-01-29T10:20:55.549Z,10.80
2018-01-29T10:23:25.987Z,10.80
2018-01-29T10:25:53.599Z,10.80
2018-01-29T10:28:21.153Z,10.80
2018-01-29T10:30:48.725Z,10.80
2018-01-29T10:33:16.307Z,10.80
2018-01-29T10:35:43.844Z,10.80
2018-01-29T10:38:11.389Z,10.80
2018-01-29T10:40:39.004Z,10.80
2018-01-29T10:43:06.588Z,10.80
2018-01-29T10:45:34.182Z,10.80
2018-01-29T10:48:01.736Z,10.90
2018-01-29T10:50:29.285Z,10.80
2018-01-29T10:52:57.820Z,10.80
2018-01-29T10:55:25.396Z,10.80
2018-01-29T10:57:52.969Z,10.80
2018-01-29T11:00:20.609Z,10.80
2018-01-29T11:02:49.250Z,10.80
2018-01-29T11:05:16.813Z,10.80
2018-01-29T11:07:44.451Z,10.80
2018-01-29T11:10:12.039Z,10.80
2018-01-29T11:12:43.331Z,10.80
2018-01-29T11:15:10.922Z,10.90
2018-01-29T11:17:38.481Z,10.90
2018-01-29T11:20:06.053Z,10.90
2018-01-29T11:22:34.575Z,10.90
2018-01-29T11:25:02.163Z,10.90
2018-01-29T11:27:30.370Z,10.90
2018-01-29T11:29:58.052Z,10.90
2018-01-29T11:32:26.372Z,10.90
2018-01-29T11:34:53.934Z,10.90
2018-01-29T11:37:21.565Z,10.90
2018-01-29T11:39:49.116Z,10.90
2018-01-29T11:42:17.420Z,10.90
2018-01-29T11:44:45.006Z,10.90
2018-01-29T11:47:12.575Z,10.90
2018-01-29T11:49:40.134Z,10.90
2018-01-29T11:52:07.739Z,10.90
2018-01-29T11:54:36.077Z,10.90
2018-01-29T11:57:03.669Z,10.90
2018-01-29T11:59:31.233Z,10.90
2018-01-29T12:01:59.563Z,10.90
2018-01-29T12:04:28.853Z,10.90
2018-01-29T12:06:56.437Z,10.90
2018-01-29T12:09:24.018Z,11.00
2018-01-29T12:11:51.594Z,11.00
2018-01-29T12:14:19.190Z,11.00
2018-01-29T12:16:46.752Z,11.00
2018-01-29T12:19:15.742Z,11.00
2018-01-29T12:21:41.904Z,11.00
2018-01-29T12:24:09.481Z,11.00
2018-01-29T12:26:37.145Z,11.10
2018-01-29T12:29:04.739Z,11.10
2018-01-29T12:31:32.296Z,11.20
2018-01-29T12:34:01.811Z,11.30
2018-01-29T12:36:30.139Z,11.30
2018-01-29T12:38:57.669Z,11.30
2018-01-29T12:41:26.283Z,11.40
2018-01-29T12:43:53.831Z,11.40
2018-01-29T12:46:21.363Z,11.40
2018-01-29T12:48:49.681Z,11.40
2018-01-29T12:51:17.236Z,11.40
2018-01-29T12:53:45.769Z,11.40
2018-01-29T12:56:13.356Z,11.40
2018-01-29T12:58:41.694Z,11.40
2018-01-29T13:01:09.272Z,11.40
2018-01-29T13:03:36.836Z,11.50
2018-01-29T13:06:04.382Z,11.60
2018-01-29T13:08:31.946Z,11.70
2018-01-29T13:11:00.024Z,11.60
2018-01-29T13:13:28.494Z,11.60
2018-01-29T13:15:56.042Z,11.50
2018-01-29T13:18:23.605Z,11.50
2018-01-29T13:20:51.272Z,11.40
2018-01-29T13:23:19.833Z,11.40
2018-01-29T13:25:47.413Z,11.40
2018-01-29T13:28:14.975Z,11.40
2018-01-29T13:30:42.519Z,11.30
2018-01-29T13:33:12.215Z,11.30
2018-01-29T13:35:41.978Z,11.40
2018-01-29T13:38:09.538Z,11.40
2018-01-29T13:40:37.109Z,11.40
2018-01-29T13:43:04.674Z,11.40
2018-01-29T13:45:32.214Z,11.40
2018-01-29T13:47:59.825Z,11.40
2018-01-29T13:50:28.178Z,11.50
2018-01-29T13:52:55.730Z,11.50
2018-01-29T13:55:23.317Z,11.60
2018-01-29T13:57:50.868Z,11.60
2018-01-29T14:00:18.433Z,11.60
2018-01-29T14:02:46.789Z,11.50
2018-01-29T14:05:14.339Z,11.50
2018-01-29T14:07:41.895Z,11.50
2018-01-29T14:10:09.462Z,11.40
2018-01-29T14:12:42.979Z,11.40
2018-01-29T14:15:10.570Z,11.50
2018-01-29T14:17:39.808Z,11.40
2018-01-29T14:20:07.341Z,11.40
2018-01-29T14:22:39.108Z,11.20
2018-01-29T14:25:07.448Z,11.10
2018-01-29T14:27:34.986Z,11.10
2018-01-29T14:30:03.379Z,11.00
2018-01-29T14:32:34.870Z,11.00
2018-01-29T14:35:02.501Z,11.00
2018-01-29T14:37:30.058Z,10.90
2018-01-29T14:39:57.675Z,10.80
2018-01-29T14:42:26.806Z,10.80
2018-01-29T14:44:54.391Z,10.70
2018-01-29T14:47:21.979Z,10.70
2018-01-29T14:49:50.575Z,10.70
2018-01-29T14:52:18.247Z,10.70
2018-01-29T14:54:46.580Z,10.60
2018-01-29T14:57:14.893Z,10.60
2018-01-29T14:59:42.496Z,10.60
2018-01-29T15:02:10.050Z,10.60
2018-01-29T15:04:38.569Z,10.40
2018-01-29T15:07:06.197Z,10.30
2018-01-29T15:09:33.799Z,10.10
2018-01-29T15:12:01.330Z,10.00
2018-01-29T15:14:39.646Z,9.90
2018-01-29T15:17:07.404Z,9.90
2018-01-29T15:19:34.958Z,9.80
2018-01-29T15:22:02.581Z,9.70
2018-01-29T15:24:30.125Z,9.70
2018-01-29T15:26:58.289Z,9.60
2018-01-29T15:29:25.872Z,9.60
2018-01-29T15:31:53.441Z,9.60
2018-01-29T15:34:34.109Z,9.50
2018-01-29T15:37:02.555Z,9.50
2018-01-29T15:39:31.701Z,9.50
2018-01-29T15:41:59.314Z,9.40
2018-01-29T15:44:29.883Z,9.40
2018-01-29T15:46:58.197Z,9.40
2018-01-29T15:49:27.164Z,9.40
2018-01-29T15:51:54.788Z,9.30
2018-01-29T15:54:26.287Z,9.40
2018-01-29T15:56:54.154Z,9.40
2018-01-29T15:59:21.704Z,9.40
2018-01-29T16:01:50.172Z,9.40
2018-01-29T16:04:17.778Z,9.40
2018-01-29T16:06:45.930Z,9.40
2018-01-29T16:09:13.476Z,9.40
2018-01-29T16:11:41.045Z,9.40
2018-01-29T16:14:08.591Z,9.40
2018-01-29T16:16:36.135Z,9.50
2018-01-29T16:19:03.747Z,9.50
2018-01-29T16:21:31.379Z,9.50
2018-01-29T16:23:59.904Z,9.50
2018-01-29T16:26:27.469Z,9.50
2018-01-29T16:28:55.048Z,9.50
2018-01-29T16:31:22.591Z,9.50
2018-01-29T16:33:51.944Z,9.60
2018-01-29T16:36:19.487Z,9.60
2018-01-29T16:38:49.882Z,9.60
2018-01-29T16:41:18.252Z,9.60
2018-01-29T16:43:47.348Z,9.60
2018-01-29T16:46:15.736Z,9.60
2018-01-29T16:48:43.400Z,9.60
2018-01-29T16:51:11.628Z,9.60
2018-01-29T16:53:39.244Z,9.60
2018-01-29T16:56:08.336Z,9.60
2018-01-29T16:58:37.279Z,9.60
2018-01-29T17:01:04.831Z,9.60
2018-01-29T17:03:36.655Z,9.70
2018-01-29T17:06:05.027Z,9.70
2018-01-29T17:08:33.343Z,9.70
2018-01-29T17:11:00.935Z,9.70
2018-01-29T17:13:28.513Z,9.70
2018-01-29T17:15:56.058Z,9.70
2018-01-29T17:18:23.680Z,9.80
2018-01-29T17:20:51.984Z,9.80
2018-01-29T17:23:20.468Z,9.80
2018-01-29T17:25:48.920Z,9.90
2018-01-29T17:28:16.531Z,9.90
2018-01-29T17:30:45.180Z,9.90
2018-01-29T17:33:12.776Z,9.90
2018-01-29T17:35:40.336Z,9.90
2018-01-29T17:38:08.045Z,9.90
2018-01-29T17:40:35.588Z,9.90
2018-01-29T17:43:03.237Z,9.90
2018-01-29T17:45:30.811Z,9.80
2018-01-29T17:47:58.404Z,9.80
2018-01-29T17:50:26.721Z,9.70
2018-01-29T17:52:55.227Z,9.70
2018-01-29T17:55:22.841Z,9.60
2018-01-29T17:57:51.271Z,9.60
2018-01-29T18:00:19.098Z,9.50
2018-01-29T18:02:54.691Z,9.40
2018-01-29T18:05:22.268Z,9.30
2018-01-29T18:07:49.816Z,9.20
2018-01-29T18:10:17.359Z,9.20
2018-01-29T18:12:46.316Z,9.10
2018-01-29T18:15:13.906Z,9.00
2018-01-29T18:17:41.450Z,9.00
2018-01-29T18:20:09.044Z,8.90
2018-01-29T18:22:41.629Z,8.90
2018-01-29T18:25:09.196Z,8.90
2018-01-29T18:27:36.753Z,8.90
2018-01-29T18:30:04.927Z,8.80
2018-01-29T18:32:32.517Z,8.80
2018-01-29T18:35:00.061Z,8.70
2018-01-29T18:37:27.635Z,8.70
2018-01-29T18:39:55.219Z,8.70
2018-01-29T18:42:23.563Z,8.60
2018-01-29T18:44:51.124Z,8.60
2018-01-29T18:47:20.271Z,8.60
2018-01-29T18:49:48.614Z,8.50
2018-01-29T18:52:16.160Z,8.50
2018-01-29T18:54:45.019Z,8.50
2018-01-29T18:57:12.693Z,8.40
2018-01-29T18:59:40.234Z,8.40
2018-01-29T19:02:07.823Z,8.30
2018-01-29T19:04:36.418Z,8.20
2018-01-29T19:07:03.984Z,8.20
2018-01-29T19:09:31.522Z,8.10
2018-01-29T19:11:59.095Z,8.10
2018-01-29T19:14:26.689Z,8.00
2018-01-29T19:16:54.241Z,8.00
2018-01-29T19:19:21.795Z,7.90
2018-01-29T19:21:49.862Z,7.90
2018-01-29T19:24:22.529Z,7.80
2018-01-29T19:26:50.138Z,7.80
2018-01-29T19:29:17.724Z,7.70
2018-01-29T19:31:46.048Z,7.70
2018-01-29T19:34:15.588Z,7.60
2018-01-29T19:36:43.862Z,7.60
2018-01-29T19:39:11.404Z,7.60
2018-01-29T19:41:39.040Z,7.50
2018-01-29T19:44:09.581Z,7.50
2018-01-29T19:46:37.201Z,7.50
2018-01-29T19:49:04.831Z,7.50
2018-01-29T19:51:32.377Z,7.50
2018-01-29T19:53:59.985Z,7.50
2018-01-29T19:56:32.943Z,7.40
2018-01-29T19:59:02.274Z,7.40
2018-01-29T20:01:45.285Z,7.30
2018-01-29T20:04:14.051Z,7.30
2018-01-29T20:06:41.676Z,7.30
2018-01-29T20:09:09.308Z,7.30
2018-01-29T20:11:36.895Z,7.20
2018-01-29T20:14:06.451Z,7.20
2018-01-29T20:16:34.047Z,7.20
2018-01-29T20:19:02.420Z,7.10
2018-01-29T20:21:30.000Z,7.10
2018-01-29T20:24:00.356Z,7.10
2018-01-29T20:26:28.266Z,7.10
2018-01-29T20:28:56.600Z,7.10
2018-01-29T20:31:24.285Z,7.10
2018-01-29T20:33:51.832Z,7.00
2018-01-29T20:36:19.409Z,7.00
2018-01-29T20:38:47.066Z,7.00
2018-01-29T20:41:14.725Z,7.00
2018-01-29T20:43:46.996Z,7.00
2018-01-29T20:46:15.328Z,7.00
2018-01-29T20:48:42.867Z,7.00
2018-01-29T20:51:13.073Z,7.00
2018-01-29T20:53:41.647Z,7.00
2018-01-29T20:56:09.298Z,7.00
2018-01-29T20:58:36.888Z,7.00
2018-01-29T21:01:05.442Z,7.00
2018-01-29T21:03:33.042Z,7.00
2018-01-29T21:06:00.660Z,7.00
2018-01-29T21:08:28.282Z,7.00
2018-01-29T21:10:56.127Z,6.90
2018-01-29T21:13:23.747Z,6.90
2018-01-29T21:15:51.445Z,6.90
2018-01-29T21:18:19.126Z,6.80
2018-01-29T21:20:46.717Z,6.70
2018-01-29T21:23:16.389Z,6.70
2018-01-29T21:25:43.940Z,6.60
2018-01-29T21:28:11.509Z,6.60
2018-01-29T21:30:39.101Z,6.60
2018-01-29T21:33:07.672Z,6.60
2018-01-29T21:35:35.274Z,6.50
2018-01-29T21:38:02.949Z,6.50
2018-01-29T21:40:31.214Z,6.40
2018-01-29T21:43:04.768Z,6.40
2018-01-29T21:45:32.326Z,6.40
2018-01-29T21:47:59.864Z,6.40
2018-01-29T21:50:27.479Z,6.40
2018-01-29T21:53:03.396Z,6.40
2018-01-29T21:55:32.647Z,6.30
2018-01-29T21:58:03.450Z,6.30
2018-01-29T22:00:31.099Z,6.30
2018-01-29T22:02:58.655Z,6.30
2018-01-29T22:05:26.352Z,6.30
2018-01-29T22:07:54.030Z,6.30
2018-01-29T22:10:21.637Z,6.20
2018-01-29T22:12:50.363Z,6.20
2018-01-29T22:15:18.723Z,6.20
2018-01-29T22:17:46.324Z,6.20
2018-01-29T22:20:14.646Z,6.10
2018-01-29T22:22:42.283Z,6.10
2018-01-29T22:25:09.837Z,6.10
2018-01-29T22:27:37.368Z,6.10
2018-01-29T22:30:05.010Z,6.10
2018-01-29T22:32:34.048Z,6.10
2018-01-29T22:35:01.630Z,6.00
2018-01-29T22:37:29.970Z,6.00
2018-01-29T22:39:57.578Z,6.00
2018-01-29T22:42:25.142Z,6.00
2018-01-29T22:44:53.491Z,5.90
2018-01-29T22:47:21.048Z,5.90
2018-01-29T22:49:48.615Z,5.90
2018-01-29T22:52:16.975Z,5.90
2018-01-29T22:54:45.591Z,5.90
2018-01-29T22:57:15.024Z,5.90
2018-01-29T22:59:42.621Z,5.90
2018-01-29T23:02:10.870Z,5.90
2018-01-29T23:04:39.184Z,5.80
2018-01-29T23:07:06.788Z,5.80
2018-01-29T23:09:35.093Z,5.60
2018-01-29T23:12:02.672Z,5.60
2018-01-29T23:14:31.258Z,5.60
2018-01-29T23:16:58.792Z,5.50
2018-01-29T23:19:27.280Z,5.40
2018-01-29T23:21:54.912Z,5.30
2018-01-29T23:24:23.441Z,5.20
2018-01-29T23:26:50.981Z,5.10
2018-01-29T23:29:19.320Z,5.00
2018-01-29T23:31:46.895Z,5.00
2018-01-29T23:34:15.450Z,5.00
2018-01-29T23:36:43.047Z,4.90
2018-01-29T23:39:10.603Z,4.80
2018-01-29T23:41:38.159Z,4.80
2018-01-29T23:44:05.740Z,4.80
2018-01-29T23:46:33.284Z,4.80
2018-01-29T23:49:00.832Z,4.80
2018-01-29T23:51:28.407Z,4.90
2018-01-29T23:53:59.609Z,4.90
2018-01-29T23:56:27.512Z,5.00
2018-01-29T23:58:55.110Z,5.00
